Atlantic Spirit — 3ELO6 — position and weather

sailwx.info

Track history (hours):
 
Tides and Currents Weather Stations Pressure Air Temp Water Temp Dewpoint Dewpoint Depression Visibility Wind Speed Wind Dir Waves Ship Positions

Atlantic Spirit

Last reported at 2018-Jan-08 02:52 UTC. Time now 2018-Jun-23 08:12 UTC.
Position N 32°01' E 120°23'.
Warning: this ship's position is months out of date.

Length 180 m; draft 7 m.

Type: Cargo ship. MMSI: 357798000.

Date/timePositionNaut miles runAvg speedWind from/ knotsBaromVisibWave heightAir tempDewpointWater temp
2018-Jan-08 02:52N 32°01' E 120°23'410.0
2018-Jan-08 02:27N 32°02' E 120°28'7 0.5
2018-Jan-07 11:27N 32°01' E 120°36'18 1.5
2018-Jan-06 22:48N 31°51' E 120°54'413.1
2018-Jan-06 22:28N 31°47' E 120°57'612.0
2018-Jan-06 22:00N 31°46' E 121°03'612.5
2018-Jan-06 21:31N 31°42' E 121°09'713.3
2018-Jan-06 21:00N 31°38' E 121°15'0 0.7
2018-Jan-06 20:29N 31°38' E 121°15'0 0.0
2018-Jan-06 19:59N 31°38' E 121°15'0 0.0
2018-Jan-06 19:29N 31°38' E 121°15'0 0.0
2018-Jan-06 18:59N 31°38' E 121°15'0 0.0
2018-Jan-06 18:29N 31°38' E 121°15'0 0.3
2018-Jan-06 17:59N 31°38' E 121°16'0 0.2
2018-Jan-06 17:29N 31°38' E 121°16'0 0.0
2018-Jan-06 16:59N 31°38' E 121°16'0 0.0
2018-Jan-06 16:23N 31°38' E 121°16'0 0.0
2018-Jan-06 15:59N 31°38' E 121°16'0 0.0
2018-Jan-06 15:29N 31°38' E 121°16'0 0.1
2018-Jan-06 14:53N 31°38' E 121°16'0 0.0
2018-Jan-06 14:29N 31°38' E 121°16'0 0.0
2018-Jan-06 13:59N 31°38' E 121°16'0 0.1
2018-Jan-06 13:23N 31°38' E 121°16'0 0.0
2018-Jan-06 12:59N 31°38' E 121°16'0 0.1
2018-Jan-06 12:29N 31°38' E 121°16'0 0.1
2018-Jan-06 11:59N 31°38' E 121°16'0 0.1
2018-Jan-06 11:29N 31°38' E 121°16'0 0.1
2018-Jan-06 10:59N 31°38' E 121°15'0 0.2
2018-Jan-06 10:29N 31°38' E 121°15'0 0.0
2018-Jan-06 09:59N 31°38' E 121°15'0 0.0
2018-Jan-06 09:29N 31°38' E 121°15'0 0.0
2018-Jan-06 08:59N 31°38' E 121°15'1 1.7
2018-Jan-06 08:30N 31°38' E 121°16'4 8.3
2018-Jan-06 08:00N 31°34' E 121°19'510.8
2018-Jan-06 07:30N 31°31' E 121°24'611.6
2018-Jan-06 07:00N 31°27' E 121°29'4 8.7
2018-Jan-06 06:30N 31°24' E 121°33'5 9.8
2018-Jan-06 06:00N 31°22' E 121°38'1710.8
2018-Jan-06 04:26N 31°10' E 121°52'510.2
2018-Jan-06 03:59N 31°07' E 121°56'4 9.2
2018-Jan-06 03:30N 31°05' E 122°01'611.9
2018-Jan-06 03:00N 31°03' E 122°08'611.4
2018-Jan-06 02:30N 31°03' E 122°14'4 7.1
2018-Jan-06 01:59N 31°02' E 122°18'3 6.0
2018-Jan-06 01:30N 31°02' E 122°22'4 7.0
2018-Jan-06 01:00N 31°01' E 122°26'  
2017-Dec-29 21:11N 41°13' E 140°10'212.9
2017-Dec-29 21:00N 41°15' E 140°12'611.8
2017-Dec-29 20:29N 41°18' E 140°19'510.5
2017-Dec-29 19:59N 41°22' E 140°24'511.0
2017-Dec-29 19:30N 41°24' E 140°30'611.5
2017-Dec-29 19:00N 41°27' E 140°37'612.6
2017-Dec-29 18:30N 41°32' E 140°43'611.7
2017-Dec-29 18:00N 41°36' E 140°48'510.6
2017-Dec-29 17:30N 41°38' E 140°54'510.3
2017-Dec-29 17:00N 41°39' E 141°01'611.9
2017-Dec-29 16:29N 41°40' E 141°09'713.8
2017-Dec-29 16:00N 41°45' E 141°16'713.6
2017-Dec-29 15:30N 41°50' E 141°22'713.8
2017-Dec-29 14:59N 41°56' E 141°27'  
Track history (hours):
 
Tides and Currents Weather Stations Pressure Air Temp Water Temp Dewpoint Dewpoint Depression Visibility Wind Speed Wind Dir Waves Ship Positions

Atlantic Spirit

Last reported at 2018-Jan-08 02:52 UTC. Time now 2018-Jun-23 08:12 UTC.
Position N 32°01' E 120°23'.
Warning: this ship's position is months out of date.

Length 180 m; draft 7 m.

Type: Cargo ship. MMSI: 357798000.

Date/timePositionNaut miles runAvg speedWind from/ knotsBaromVisibWave heightAir tempDewpointWater temp
2018-Jan-08 02:52N 32°01' E 120°23'410.0
2018-Jan-08 02:27N 32°02' E 120°28'7 0.5
2018-Jan-07 11:27N 32°01' E 120°36'18 1.5
2018-Jan-06 22:48N 31°51' E 120°54'413.1
2018-Jan-06 22:28N 31°47' E 120°57'612.0
2018-Jan-06 22:00N 31°46' E 121°03'612.5
2018-Jan-06 21:31N 31°42' E 121°09'713.3
2018-Jan-06 21:00N 31°38' E 121°15'0 0.7
2018-Jan-06 20:29N 31°38' E 121°15'0 0.0
2018-Jan-06 19:59N 31°38' E 121°15'0 0.0
2018-Jan-06 19:29N 31°38' E 121°15'0 0.0
2018-Jan-06 18:59N 31°38' E 121°15'0 0.0
2018-Jan-06 18:29N 31°38' E 121°15'0 0.3
2018-Jan-06 17:59N 31°38' E 121°16'0 0.2
2018-Jan-06 17:29N 31°38' E 121°16'0 0.0
2018-Jan-06 16:59N 31°38' E 121°16'0 0.0
2018-Jan-06 16:23N 31°38' E 121°16'0 0.0
2018-Jan-06 15:59N 31°38' E 121°16'0 0.0
2018-Jan-06 15:29N 31°38' E 121°16'0 0.1
2018-Jan-06 14:53N 31°38' E 121°16'0 0.0
2018-Jan-06 14:29N 31°38' E 121°16'0 0.0
2018-Jan-06 13:59N 31°38' E 121°16'0 0.1
2018-Jan-06 13:23N 31°38' E 121°16'0 0.0
2018-Jan-06 12:59N 31°38' E 121°16'0 0.1
2018-Jan-06 12:29N 31°38' E 121°16'0 0.1
2018-Jan-06 11:59N 31°38' E 121°16'0 0.1
2018-Jan-06 11:29N 31°38' E 121°16'0 0.1
2018-Jan-06 10:59N 31°38' E 121°15'0 0.2
2018-Jan-06 10:29N 31°38' E 121°15'0 0.0
2018-Jan-06 09:59N 31°38' E 121°15'0 0.0
2018-Jan-06 09:29N 31°38' E 121°15'0 0.0
2018-Jan-06 08:59N 31°38' E 121°15'1 1.7
2018-Jan-06 08:30N 31°38' E 121°16'4 8.3
2018-Jan-06 08:00N 31°34' E 121°19'510.8
2018-Jan-06 07:30N 31°31' E 121°24'611.6
2018-Jan-06 07:00N 31°27' E 121°29'4 8.7
2018-Jan-06 06:30N 31°24' E 121°33'5 9.8
2018-Jan-06 06:00N 31°22' E 121°38'1710.8
2018-Jan-06 04:26N 31°10' E 121°52'510.2
2018-Jan-06 03:59N 31°07' E 121°56'4 9.2
2018-Jan-06 03:30N 31°05' E 122°01'611.9
2018-Jan-06 03:00N 31°03' E 122°08'611.4
2018-Jan-06 02:30N 31°03' E 122°14'4 7.1
2018-Jan-06 01:59N 31°02' E 122°18'3 6.0
2018-Jan-06 01:30N 31°02' E 122°22'4 7.0
2018-Jan-06 01:00N 31°01' E 122°26'  
2017-Dec-29 21:11N 41°13' E 140°10'212.9
2017-Dec-29 21:00N 41°15' E 140°12'611.8
2017-Dec-29 20:29N 41°18' E 140°19'510.5
2017-Dec-29 19:59N 41°22' E 140°24'511.0
2017-Dec-29 19:30N 41°24' E 140°30'611.5
2017-Dec-29 19:00N 41°27' E 140°37'612.6
2017-Dec-29 18:30N 41°32' E 140°43'611.7
2017-Dec-29 18:00N 41°36' E 140°48'510.6
2017-Dec-29 17:30N 41°38' E 140°54'510.3
2017-Dec-29 17:00N 41°39' E 141°01'611.9
2017-Dec-29 16:29N 41°40' E 141°09'713.8
2017-Dec-29 16:00N 41°45' E 141°16'713.6
2017-Dec-29 15:30N 41°50' E 141°22'713.8
2017-Dec-29 14:59N 41°56' E 141°27'  

Dump ship's entire track history